createdAt,value
2023-06-12T00:01:04.557Z,33.64
2023-06-12T00:03:52.764Z,33.86
2023-06-12T00:06:21.782Z,33.85
2023-06-12T00:08:50.470Z,33.93
2023-06-12T00:11:18.539Z,33.89
2023-06-12T00:13:48.785Z,33.90
2023-06-12T00:16:18.189Z,34.07
2023-06-12T00:18:47.193Z,34.11
2023-06-12T00:21:15.326Z,34.13
2023-06-12T00:23:43.838Z,34.03
2023-06-12T00:26:12.202Z,34.09
2023-06-12T00:28:41.887Z,34.17
2023-06-12T00:31:10.047Z,34.15
2023-06-12T00:33:39.467Z,34.10
2023-06-12T00:36:07.642Z,34.15
2023-06-12T00:38:36.216Z,34.24
2023-06-12T00:41:04.602Z,34.27
2023-06-12T00:43:32.817Z,34.29
2023-06-12T00:46:02.021Z,34.32
2023-06-12T00:48:30.547Z,34.21
2023-06-12T00:51:00.219Z,34.20
2023-06-12T00:53:28.630Z,34.26
2023-06-12T00:55:56.752Z,34.11
2023-06-12T00:58:24.918Z,34.20
2023-06-12T01:00:55.760Z,34.24
2023-06-12T01:03:26.455Z,34.32
2023-06-12T01:05:56.819Z,34.33
2023-06-12T01:08:48.695Z,34.34
2023-06-12T01:11:19.225Z,34.56
2023-06-12T01:13:47.603Z,34.63
2023-06-12T01:16:15.799Z,34.50
2023-06-12T01:18:44.430Z,34.68
2023-06-12T01:21:18.470Z,34.77
2023-06-12T01:24:02.324Z,34.79
2023-06-12T01:27:09.396Z,34.84
2023-06-12T01:29:52.622Z,35.11
2023-06-12T01:32:22.094Z,35.21
2023-06-12T01:35:10.924Z,35.17
2023-06-12T01:37:52.370Z,35.22
2023-06-12T01:40:28.115Z,35.49
2023-06-12T01:42:56.778Z,35.48
2023-06-12T01:45:24.978Z,35.81
2023-06-12T01:47:53.517Z,35.70
2023-06-12T01:50:23.067Z,35.76
2023-06-12T01:52:51.457Z,35.77
2023-06-12T01:55:22.854Z,35.94
2023-06-12T01:57:52.803Z,36.03
2023-06-12T02:00:24.471Z,36.17
2023-06-12T02:02:58.019Z,36.24
2023-06-12T02:05:30.537Z,36.29
2023-06-12T02:07:58.698Z,36.31
2023-06-12T02:10:28.602Z,36.43
2023-06-12T02:12:56.992Z,36.64
2023-06-12T02:15:25.687Z,36.56
2023-06-12T02:17:55.328Z,36.70
2023-06-12T02:20:23.555Z,36.69
2023-06-12T02:22:51.626Z,36.87
2023-06-12T02:25:20.005Z,36.87
2023-06-12T02:27:48.487Z,37.00
2023-06-12T02:30:16.766Z,36.99
2023-06-12T02:32:45.172Z,37.10
2023-06-12T02:35:13.643Z,37.25
2023-06-12T02:37:42.012Z,37.11
2023-06-12T02:40:11.478Z,37.33
2023-06-12T02:42:39.880Z,37.36
2023-06-12T02:45:08.790Z,37.35
2023-06-12T02:47:37.193Z,37.41
2023-06-12T02:50:07.214Z,37.57
2023-06-12T02:52:42.201Z,37.62
2023-06-12T02:55:10.844Z,37.84
2023-06-12T02:57:38.999Z,37.94
2023-06-12T03:00:08.864Z,37.92
2023-06-12T03:02:46.451Z,37.93
2023-06-12T03:05:18.224Z,38.01
2023-06-12T03:07:46.487Z,38.19
2023-06-12T03:10:17.846Z,38.09
2023-06-12T03:12:46.458Z,38.28
2023-06-12T03:15:18.071Z,38.29
2023-06-12T03:17:46.514Z,38.18
2023-06-12T03:20:16.111Z,38.35
2023-06-12T03:22:44.430Z,38.09
2023-06-12T03:25:13.433Z,38.27
2023-06-12T03:27:41.812Z,38.07
2023-06-12T03:30:10.898Z,38.01
2023-06-12T03:32:39.854Z,38.14
2023-06-12T03:35:09.286Z,38.20
2023-06-12T03:37:38.549Z,38.22
2023-06-12T03:40:09.842Z,38.22
2023-06-12T03:42:40.665Z,38.13
2023-06-12T03:45:11.523Z,37.58
2023-06-12T03:47:40.297Z,36.76
2023-06-12T03:50:10.925Z,35.70
2023-06-12T03:52:39.295Z,34.46
2023-06-12T03:55:08.208Z,33.23
2023-06-12T03:57:36.299Z,31.98
2023-06-12T04:00:06.542Z,30.75
2023-06-12T04:02:45.420Z,29.48
2023-06-12T04:05:14.799Z,28.40
2023-06-12T04:07:42.986Z,27.35
2023-06-12T04:10:11.678Z,26.54
2023-06-12T04:12:40.146Z,25.60
2023-06-12T04:15:09.022Z,25.13
2023-06-12T04:17:37.463Z,24.76
2023-06-12T04:20:08.045Z,23.96
2023-06-12T04:22:37.132Z,23.04
2023-06-12T04:25:06.762Z,22.87
2023-06-12T04:27:35.847Z,22.41
2023-06-12T04:30:04.652Z,22.05
2023-06-12T04:32:33.574Z,21.70
2023-06-12T04:35:02.851Z,21.31
2023-06-12T04:37:31.193Z,21.21
2023-06-12T04:39:59.273Z,20.83
2023-06-12T04:42:28.352Z,20.92
2023-06-12T04:44:57.285Z,20.79
2023-06-12T04:47:25.987Z,20.65
2023-06-12T04:49:59.449Z,20.08
2023-06-12T04:52:27.901Z,20.28
2023-06-12T04:54:56.497Z,20.25
2023-06-12T04:57:24.881Z,20.26
2023-06-12T04:59:54.009Z,20.29
2023-06-12T05:02:22.677Z,19.95
2023-06-12T05:04:51.022Z,19.72
2023-06-12T05:07:20.826Z,19.83
2023-06-12T05:09:52.384Z,19.21
2023-06-12T05:12:20.571Z,19.19
2023-06-12T05:14:48.834Z,19.43
2023-06-12T05:17:17.321Z,18.91
2023-06-12T05:19:45.638Z,18.50
2023-06-12T05:22:14.169Z,18.55
2023-06-12T05:24:43.893Z,18.55
2023-06-12T05:27:12.152Z,18.24
2023-06-12T05:29:40.434Z,17.99
2023-06-12T05:32:09.672Z,18.47
2023-06-12T05:34:39.547Z,18.67
2023-06-12T05:37:07.915Z,18.54
2023-06-12T05:39:37.112Z,18.31
2023-06-12T05:42:06.900Z,17.80
2023-06-12T05:44:36.126Z,18.17
2023-06-12T05:47:04.860Z,17.68
2023-06-12T05:49:34.370Z,17.77
2023-06-12T05:52:04.026Z,17.90
2023-06-12T05:54:32.739Z,17.83
2023-06-12T05:57:02.387Z,17.85
2023-06-12T05:59:31.637Z,17.84
2023-06-12T06:02:00.905Z,17.72
2023-06-12T06:04:30.102Z,17.46
2023-06-12T06:07:00.790Z,17.45
2023-06-12T06:09:32.900Z,17.57
2023-06-12T06:12:01.074Z,17.38
2023-06-12T06:14:31.199Z,17.53
2023-06-12T06:16:59.354Z,17.70
2023-06-12T06:19:31.227Z,17.66
2023-06-12T06:21:59.812Z,17.52
2023-06-12T06:24:28.535Z,17.27
2023-06-12T06:26:57.184Z,17.17
2023-06-12T06:29:25.555Z,17.32
2023-06-12T06:31:53.648Z,17.47
2023-06-12T06:34:22.086Z,17.63
2023-06-12T06:36:50.244Z,17.96
2023-06-12T06:39:18.663Z,18.48
2023-06-12T06:41:46.968Z,18.78
2023-06-12T06:44:15.527Z,19.04
2023-06-12T06:46:44.683Z,18.81
2023-06-12T06:49:13.498Z,19.27
2023-06-12T06:51:42.380Z,19.62
2023-06-12T06:54:10.964Z,19.86
2023-06-12T06:56:39.655Z,19.88
2023-06-12T06:59:08.391Z,20.26
2023-06-12T07:01:38.848Z,20.11
2023-06-12T07:04:07.897Z,20.34
2023-06-12T07:06:36.448Z,20.47
2023-06-12T07:09:04.840Z,20.38
2023-06-12T07:11:33.194Z,20.73
2023-06-12T07:14:01.385Z,20.73
2023-06-12T07:16:31.411Z,20.52
2023-06-12T07:19:00.178Z,20.39
2023-06-12T07:21:28.366Z,19.78
2023-06-12T07:23:56.668Z,19.64
2023-06-12T07:26:29.093Z,18.70
2023-06-12T07:29:02.492Z,19.12
2023-06-12T07:31:31.934Z,18.71
2023-06-12T07:34:01.088Z,18.03
2023-06-12T07:36:32.705Z,18.12
2023-06-12T07:39:00.911Z,19.46
2023-06-12T07:41:29.233Z,19.17
2023-06-12T07:43:58.223Z,19.59
2023-06-12T07:46:27.125Z,20.21
2023-06-12T07:48:56.055Z,20.62
2023-06-12T07:51:25.162Z,20.25
2023-06-12T07:53:53.632Z,20.77
2023-06-12T07:56:24.100Z,21.41
2023-06-12T07:58:53.867Z,21.63
2023-06-12T08:01:23.633Z,20.24
2023-06-12T08:03:52.045Z,20.52
2023-06-12T08:06:21.445Z,20.51
2023-06-12T08:08:49.682Z,20.26
2023-06-12T08:11:19.656Z,20.71
2023-06-12T08:13:51.926Z,21.27
2023-06-12T08:16:24.946Z,21.79
2023-06-12T08:18:53.638Z,21.72
2023-06-12T08:21:26.360Z,22.17
2023-06-12T08:23:57.561Z,22.29
2023-06-12T08:26:25.995Z,22.57
2023-06-12T08:28:55.296Z,21.95
2023-06-12T08:31:27.254Z,21.74
2023-06-12T08:33:56.040Z,22.03
2023-06-12T08:36:24.053Z,22.62
2023-06-12T08:38:52.030Z,22.59
2023-06-12T08:41:23.353Z,22.61
2023-06-12T08:43:54.212Z,22.40
2023-06-12T08:46:26.983Z,21.98
2023-06-12T08:48:55.767Z,21.97
2023-06-12T08:51:26.381Z,21.46
2023-06-12T08:53:56.284Z,20.85
2023-06-12T08:56:25.057Z,20.63
2023-06-12T08:58:53.231Z,20.64
2023-06-12T09:01:23.122Z,20.69
2023-06-12T09:03:56.640Z,20.52
2023-06-12T09:06:25.190Z,20.34
2023-06-12T09:08:53.406Z,20.22
2023-06-12T09:11:21.568Z,19.91
2023-06-12T09:13:52.569Z,20.48
2023-06-12T09:16:21.503Z,20.70
2023-06-12T09:18:53.856Z,20.74
2023-06-12T09:21:26.157Z,20.88
2023-06-12T09:23:56.930Z,21.15
2023-06-12T09:26:25.141Z,21.26
2023-06-12T09:28:54.361Z,21.43
2023-06-12T09:31:23.107Z,21.33
2023-06-12T09:33:53.661Z,21.06
2023-06-12T09:36:42.729Z,21.37
2023-06-12T09:39:16.765Z,21.47
2023-06-12T09:41:52.509Z,21.56
2023-06-12T09:44:23.124Z,22.10
2023-06-12T09:46:52.446Z,21.64
2023-06-12T09:52:09.380Z,21.53
2023-06-12T09:54:38.765Z,21.85
2023-06-12T09:57:08.756Z,22.17
2023-06-12T09:59:38.426Z,21.78
2023-06-12T10:02:13.157Z,21.75
2023-06-12T10:05:00.785Z,21.83
2023-06-12T10:07:32.477Z,21.98
2023-06-12T10:10:04.970Z,21.79
2023-06-12T10:12:34.592Z,21.81
2023-06-12T10:15:07.685Z,21.67
2023-06-12T10:17:37.144Z,21.35
2023-06-12T10:20:08.094Z,21.25
2023-06-12T10:22:36.342Z,21.50
2023-06-12T10:25:05.088Z,21.81
2023-06-12T10:27:34.092Z,21.34
2023-06-12T10:30:02.462Z,21.65
2023-06-12T10:32:33.225Z,21.43
2023-06-12T10:35:04.890Z,21.56
2023-06-12T10:37:35.937Z,20.69
2023-06-12T10:40:14.417Z,21.04
2023-06-12T10:42:55.225Z,21.65
2023-06-12T10:45:34.517Z,22.00
2023-06-12T10:48:10.321Z,22.54
2023-06-12T10:50:50.915Z,22.78
2023-06-12T10:53:24.179Z,22.76
2023-06-12T10:55:57.229Z,22.98
2023-06-12T10:58:27.231Z,22.91
2023-06-12T11:00:55.739Z,22.85
2023-06-12T11:03:35.794Z,22.62
2023-06-12T11:06:18.518Z,22.82
2023-06-12T11:08:48.709Z,23.12
2023-06-12T11:11:18.786Z,23.31
2023-06-12T11:13:47.808Z,23.04
2023-06-12T11:16:17.391Z,23.25
2023-06-12T11:18:46.083Z,22.63
2023-06-12T11:21:14.724Z,22.84
2023-06-12T11:23:43.720Z,23.30
2023-06-12T11:26:11.979Z,23.41
2023-06-12T11:28:40.154Z,23.13
2023-06-12T11:31:12.005Z,23.04
2023-06-12T11:33:41.784Z,23.32
2023-06-12T11:36:10.378Z,23.17
2023-06-12T11:41:13.655Z,23.96
2023-06-12T11:43:44.051Z,23.97
2023-06-12T11:46:12.498Z,24.17
2023-06-12T11:51:12.552Z,23.39
2023-06-12T11:53:41.564Z,23.18
2023-06-12T11:58:45.755Z,23.04
2023-06-12T12:01:24.539Z,23.23
2023-06-12T12:03:58.293Z,23.36
2023-06-12T12:06:28.221Z,23.48
2023-06-12T12:08:57.793Z,23.54
2023-06-12T12:11:31.590Z,23.53
2023-06-12T12:14:02.447Z,23.75
2023-06-12T12:16:44.492Z,23.50
2023-06-12T12:19:20.324Z,23.63
2023-06-12T12:21:48.386Z,23.92
2023-06-12T12:24:16.792Z,23.92
2023-06-12T12:26:52.998Z,23.54
2023-06-12T12:29:22.505Z,23.52
2023-06-12T12:31:51.089Z,24.21
2023-06-12T12:34:19.784Z,24.44
2023-06-12T12:36:48.778Z,24.13
2023-06-12T12:39:17.366Z,23.56
2023-06-12T12:41:45.702Z,24.06
2023-06-12T12:44:13.770Z,24.27
2023-06-12T12:46:41.970Z,24.07
2023-06-12T12:49:13.135Z,23.83
2023-06-12T12:51:41.616Z,23.55
2023-06-12T12:54:09.639Z,23.98
2023-06-12T12:56:37.973Z,24.14
2023-06-12T12:59:08.139Z,24.10
2023-06-12T13:01:36.446Z,24.36
2023-06-12T13:04:04.842Z,24.58
2023-06-12T13:06:33.636Z,24.69
2023-06-12T13:09:01.882Z,24.47
2023-06-12T13:11:30.118Z,23.94
2023-06-12T13:13:58.189Z,23.37
2023-06-12T13:16:26.823Z,23.57
2023-06-12T13:18:54.962Z,23.93
2023-06-12T13:21:23.170Z,24.02
2023-06-12T13:23:52.564Z,23.40
2023-06-12T13:26:21.866Z,23.41
2023-06-12T13:28:50.002Z,23.27
2023-06-12T13:31:18.438Z,22.89
2023-06-12T13:33:46.552Z,22.44
2023-06-12T13:36:14.783Z,22.14
2023-06-12T13:38:43.366Z,22.33
2023-06-12T13:41:12.748Z,22.46
2023-06-12T13:43:42.322Z,23.02
2023-06-12T13:46:11.311Z,23.53
2023-06-12T13:48:39.765Z,23.65
2023-06-12T13:51:07.851Z,24.19
2023-06-12T13:53:36.270Z,24.39
2023-06-12T13:56:04.859Z,24.51
2023-06-12T13:58:32.962Z,24.67
2023-06-12T14:01:01.120Z,24.49
2023-06-12T14:03:29.154Z,24.37
2023-06-12T14:05:57.454Z,24.63
2023-06-12T14:08:25.555Z,24.48
2023-06-12T14:10:53.935Z,23.65
2023-06-12T14:13:22.176Z,23.71
2023-06-12T14:15:50.287Z,23.57
2023-06-12T14:18:18.760Z,23.54
2023-06-12T14:20:47.162Z,23.20
2023-06-12T14:23:15.207Z,23.35
2023-06-12T14:25:43.442Z,23.14
2023-06-12T14:28:11.633Z,23.41
2023-06-12T14:30:39.745Z,23.95
2023-06-12T14:33:08.097Z,24.04
2023-06-12T14:35:36.290Z,24.46
2023-06-12T14:38:04.598Z,24.30
2023-06-12T14:40:32.905Z,24.28
2023-06-12T14:43:01.064Z,24.09
2023-06-12T14:45:29.294Z,24.44
2023-06-12T14:47:57.557Z,24.44
2023-06-12T14:50:25.787Z,24.40
2023-06-12T14:52:53.755Z,24.34
2023-06-12T14:55:21.923Z,24.13
2023-06-12T14:57:49.996Z,24.56
2023-06-12T15:00:18.741Z,24.42
2023-06-12T15:02:46.920Z,24.31
2023-06-12T15:05:15.656Z,23.70
2023-06-12T15:07:44.021Z,23.35
2023-06-12T15:10:12.105Z,23.28
2023-06-12T15:12:41.099Z,23.49
2023-06-12T15:15:12.729Z,23.63
2023-06-12T15:17:41.137Z,23.25
2023-06-12T15:20:09.593Z,23.36
2023-06-12T15:22:37.664Z,23.39
2023-06-12T15:25:06.008Z,23.20
2023-06-12T15:27:34.212Z,22.88
2023-06-12T15:30:02.495Z,22.92
2023-06-12T15:32:31.000Z,22.85
2023-06-12T15:34:59.102Z,22.54
2023-06-12T15:37:27.208Z,22.50
2023-06-12T15:39:55.558Z,22.11
2023-06-12T15:42:23.833Z,22.39
2023-06-12T15:44:52.033Z,22.88
2023-06-12T15:47:20.861Z,23.08
2023-06-12T15:49:49.146Z,22.96
2023-06-12T15:52:17.169Z,23.08
2023-06-12T15:54:45.222Z,23.43
2023-06-12T15:57:13.357Z,23.19
2023-06-12T15:59:41.459Z,23.34
2023-06-12T16:02:09.633Z,22.97
2023-06-12T16:04:39.027Z,22.89
2023-06-12T16:07:07.492Z,23.09
2023-06-12T16:09:36.073Z,23.12
2023-06-12T16:12:04.413Z,23.40
2023-06-12T16:14:32.550Z,23.39
2023-06-12T16:17:01.620Z,23.13
2023-06-12T16:19:30.042Z,22.72
2023-06-12T16:21:58.108Z,22.87
2023-06-12T16:24:26.913Z,22.84
2023-06-12T16:26:55.191Z,22.71
2023-06-12T16:29:23.448Z,22.21
2023-06-12T16:31:52.434Z,22.59
2023-06-12T16:34:23.168Z,23.17
2023-06-12T16:36:51.394Z,22.92
2023-06-12T16:39:19.523Z,22.70
2023-06-12T16:41:47.716Z,22.52
2023-06-12T16:44:15.759Z,22.59
2023-06-12T16:46:43.965Z,22.82
2023-06-12T16:49:12.107Z,22.92
2023-06-12T16:51:40.279Z,23.16
2023-06-12T16:54:08.694Z,23.22
2023-06-12T16:56:37.030Z,26.81
2023-06-12T16:59:05.306Z,28.74
2023-06-12T17:01:33.721Z,24.68
2023-06-12T17:04:02.265Z,24.06
2023-06-12T17:06:30.744Z,24.81
2023-06-12T17:08:59.849Z,23.99
2023-06-12T17:11:28.264Z,25.30
2023-06-12T17:13:56.542Z,31.22
2023-06-12T17:16:24.661Z,32.75
2023-06-12T17:18:52.944Z,33.35
2023-06-12T17:21:21.060Z,34.20
2023-06-12T17:23:49.179Z,35.08
2023-06-12T17:26:17.469Z,32.19
2023-06-12T17:28:45.534Z,28.87
2023-06-12T17:31:13.692Z,28.30
2023-06-12T17:33:41.992Z,28.18
2023-06-12T17:36:10.078Z,32.53
2023-06-12T17:38:38.204Z,34.30
2023-06-12T17:41:06.349Z,34.75
2023-06-12T17:43:34.517Z,34.73
2023-06-12T17:46:03.142Z,35.20
2023-06-12T17:48:31.743Z,35.78
2023-06-12T17:50:59.995Z,36.10
2023-06-12T17:53:28.283Z,36.43
2023-06-12T17:55:56.570Z,36.78
2023-06-12T17:58:24.733Z,36.91
2023-06-12T18:00:53.711Z,36.94
2023-06-12T18:03:22.056Z,37.13
2023-06-12T18:05:50.360Z,37.45
2023-06-12T18:08:18.453Z,37.67
2023-06-12T18:10:46.639Z,37.54
2023-06-12T18:13:16.350Z,37.26
2023-06-12T18:15:46.656Z,37.35
2023-06-12T18:18:17.978Z,37.17
2023-06-12T18:20:46.548Z,37.07
2023-06-12T18:23:15.170Z,37.24
2023-06-12T18:25:43.445Z,36.95
2023-06-12T18:28:11.515Z,36.98
2023-06-12T18:30:39.694Z,37.02
2023-06-12T18:33:08.215Z,37.00
2023-06-12T18:35:37.511Z,37.08
2023-06-12T18:38:07.070Z,36.89
2023-06-12T18:40:35.256Z,36.83
2023-06-12T18:43:03.984Z,36.84
2023-06-12T18:45:32.348Z,36.97
2023-06-12T18:48:00.352Z,37.12
2023-06-12T18:50:28.646Z,37.16
2023-06-12T18:52:56.917Z,37.23
2023-06-12T18:55:25.032Z,37.29
2023-06-12T18:57:53.117Z,37.37
2023-06-12T19:00:21.342Z,37.39
2023-06-12T19:02:53.581Z,37.41
2023-06-12T19:05:22.497Z,37.49
2023-06-12T19:07:50.978Z,37.56
2023-06-12T19:10:19.007Z,37.60
2023-06-12T19:12:47.078Z,37.74
2023-06-12T19:15:15.710Z,37.84
2023-06-12T19:17:44.111Z,37.88
2023-06-12T19:20:13.084Z,38.00
2023-06-12T19:22:41.146Z,38.06
2023-06-12T19:25:09.509Z,38.14
2023-06-12T19:27:37.752Z,38.27
2023-06-12T19:30:06.800Z,38.35
2023-06-12T19:32:35.643Z,38.39
2023-06-12T19:35:03.959Z,38.45
2023-06-12T19:37:32.129Z,38.48
2023-06-12T19:40:00.471Z,38.58
2023-06-12T19:42:29.808Z,38.70
2023-06-12T19:44:57.983Z,38.73
2023-06-12T19:47:26.161Z,38.84
2023-06-12T19:49:56.570Z,38.92
2023-06-12T19:52:24.851Z,38.98
2023-06-12T19:54:53.340Z,39.02
2023-06-12T19:57:21.540Z,39.15
2023-06-12T19:59:49.941Z,39.28
2023-06-12T20:02:18.058Z,39.25
2023-06-12T20:04:46.638Z,39.37
2023-06-12T20:07:14.686Z,39.44
2023-06-12T20:09:43.091Z,39.49
2023-06-12T20:12:11.359Z,39.43
2023-06-12T20:14:39.663Z,39.44
2023-06-12T20:17:07.693Z,39.57
2023-06-12T20:19:36.378Z,39.45
2023-06-12T20:22:05.137Z,39.55
2023-06-12T20:24:37.886Z,39.58
2023-06-12T20:27:07.461Z,39.68
2023-06-12T20:29:35.785Z,39.65
2023-06-12T20:32:04.889Z,39.61
2023-06-12T20:34:33.381Z,39.53
2023-06-12T20:37:01.590Z,39.46
2023-06-12T20:39:29.824Z,39.43
2023-06-12T20:41:58.026Z,39.35
2023-06-12T20:44:26.224Z,39.13
2023-06-12T20:46:54.232Z,39.06
2023-06-12T20:49:22.348Z,38.78
2023-06-12T20:51:51.040Z,38.59
2023-06-12T20:54:19.341Z,38.53
2023-06-12T20:56:47.410Z,38.36
2023-06-12T20:59:19.072Z,38.31
2023-06-12T21:01:47.709Z,38.17
2023-06-12T21:04:15.903Z,37.53
2023-06-12T21:06:44.170Z,37.14
2023-06-12T21:09:12.341Z,37.02
2023-06-12T21:11:40.888Z,37.12
2023-06-12T21:14:13.855Z,37.30
2023-06-12T21:16:42.005Z,37.52
2023-06-12T21:19:13.360Z,37.75
2023-06-12T21:21:42.343Z,37.95
2023-06-12T21:24:10.795Z,38.15
2023-06-12T21:26:38.969Z,38.38
2023-06-12T21:29:08.238Z,38.64
2023-06-12T21:31:36.574Z,39.04
2023-06-12T21:34:04.687Z,39.42
2023-06-12T21:36:32.954Z,39.86
2023-06-12T21:43:20.046Z,40.88
2023-06-12T21:45:48.369Z,41.40
2023-06-12T21:48:17.353Z,41.64
2023-06-12T21:50:45.620Z,41.81
2023-06-12T21:53:13.747Z,41.88
2023-06-12T21:55:42.033Z,42.09
2023-06-12T21:58:10.175Z,42.09
2023-06-12T22:00:38.320Z,42.11
2023-06-12T22:03:06.681Z,42.25
2023-06-12T22:05:35.128Z,42.44
2023-06-12T22:08:06.844Z,42.40
2023-06-12T22:10:35.773Z,42.56
2023-06-12T22:13:04.544Z,42.59
2023-06-12T22:15:32.803Z,42.74
2023-06-12T22:18:01.280Z,42.66
2023-06-12T22:20:29.581Z,42.78
2023-06-12T22:22:57.741Z,42.71
2023-06-12T22:25:25.909Z,42.62
2023-06-12T22:27:54.494Z,42.57
2023-06-12T22:30:22.894Z,42.56
2023-06-12T22:32:51.273Z,42.47
2023-06-12T22:35:19.618Z,42.62
2023-06-12T22:37:47.797Z,42.78
2023-06-12T22:40:17.734Z,42.65
2023-06-12T22:42:48.278Z,42.42
2023-06-12T22:45:17.472Z,42.46
2023-06-12T22:47:45.883Z,42.65
2023-06-12T22:50:14.107Z,42.69
2023-06-12T22:52:42.699Z,42.69
2023-06-12T22:55:12.261Z,42.79
2023-06-12T22:57:41.157Z,43.09
2023-06-12T23:00:11.825Z,43.15
2023-06-12T23:02:40.191Z,43.32
2023-06-12T23:05:09.412Z,43.52
2023-06-12T23:07:38.801Z,43.60
2023-06-12T23:10:07.763Z,43.88
2023-06-12T23:12:36.321Z,44.01
2023-06-12T23:15:05.151Z,43.77
2023-06-12T23:17:40.498Z,43.64
2023-06-12T23:20:11.379Z,43.80
2023-06-12T23:22:40.237Z,43.97
2023-06-12T23:25:09.185Z,43.91
2023-06-12T23:27:37.922Z,44.01
2023-06-12T23:30:07.066Z,44.16
2023-06-12T23:32:35.289Z,44.25
2023-06-12T23:35:03.573Z,44.37
2023-06-12T23:37:32.179Z,44.36
2023-06-12T23:40:00.583Z,44.37
2023-06-12T23:42:28.786Z,44.34
2023-06-12T23:44:56.979Z,44.39
2023-06-12T23:47:25.389Z,44.45
2023-06-12T23:49:53.686Z,44.53
2023-06-12T23:52:21.884Z,44.61
2023-06-12T23:54:50.263Z,44.56
2023-06-12T23:57:18.441Z,44.60
2023-06-12T23:59:47.359Z,44.86
